Terminal Aerodrome Forecast
Issued by NWS Blacksburg, VA

Home | Current Version | Previous Version | Text Only | Print | Product List | Glossary On
Versions: 1 2 3 4 5 6 7 8 9 10 11 12 13 14 15 16 17 18 19 20 21 22 23 24 25 26
000
FTUS41 KRNK 230532
TAFROA
TAF
KROA 230532Z 2306/2406 23005KT P6SM -SHRA OVC070
     FM230700 23005KT 6SM -SHRA OVC030
     FM231000 22006KT P6SM OVC035
      TEMPO 2310/2312 4SM -SHRA OVC025
     FM231200 22009KT P6SM BKN070
     FM240200 21008KT P6SM SCT100=

USA.gov is the U.S. government's official web portal to all federal, state and local government web resources and services.